Time;durP1;ratioP1;P1;durP2;ratioP2;P2;SDS_P1;SDS_P2;PMS_P1;PMS_P2;Temp;Humidity;BMP_temperature;BMP_pressure;BME280_temperature;BME280_humidity;BME280_pressure;Samples;Min_cycle;Max_cycle;Signal;HPM_P1;HPM_P2
2023/04/20 00:00:33;;;;;;;6.60;2.10;;;2.90;99.90;;;;;;5042329;28;20474;-83
2023/04/20 00:03:00;;;;;;;3.97;2.00;;;2.70;99.90;;;;;;5028813;28;20038;-84
2023/04/20 00:05:26;;;;;;;5.05;1.77;;;2.90;99.90;;;;;;5033051;28;20470;-84
2023/04/20 00:07:53;;;;;;;3.78;1.60;;;3.00;99.90;;;;;;5028167;28;20045;-84
2023/04/20 00:10:19;;;;;;;3.45;1.77;;;3.10;99.90;;;;;;5033821;28;20033;-84
2023/04/20 00:12:45;;;;;;;3.85;1.90;;;3.10;99.90;;;;;;5028755;28;20443;-84
2023/04/20 00:15:11;;;;;;;4.20;1.88;;;3.10;99.90;;;;;;5025130;28;20041;-84
2023/04/20 00:17:38;;;;;;;4.40;2.25;;;2.90;99.90;;;;;;5030527;28;20025;-83
2023/04/20 00:20:06;;;;;;;3.55;1.90;;;2.80;99.90;;;;;;5033665;28;20505;-84
2023/04/20 00:22:32;;;;;;;5.22;2.05;;;2.70;99.90;;;;;;5033623;28;20033;-83
2023/04/20 00:24:59;;;;;;;4.70;2.65;;;2.60;99.90;;;;;;5027213;28;20052;-84
2023/04/20 00:27:25;;;;;;;3.97;2.55;;;2.70;99.90;;;;;;5033749;28;20033;-84
2023/04/20 00:29:51;;;;;;;6.45;1.98;;;2.70;99.90;;;;;;5028723;28;20044;-84
2023/04/20 00:32:17;;;;;;;3.85;2.20;;;2.70;99.90;;;;;;5028624;28;20025;-84
2023/04/20 00:34:43;;;;;;;5.22;3.10;;;2.60;99.90;;;;;;5028061;28;20048;-84
2023/04/20 00:37:10;;;;;;;4.57;2.25;;;2.60;99.90;;;;;;5032955;28;20439;-84
2023/04/20 00:39:36;;;;;;;4.25;2.33;;;2.50;99.90;;;;;;5032389;28;20037;-83
2023/04/20 00:42:06;;;;;;;3.63;2.17;;;2.50;99.90;;;;;;5022732;28;20045;-84
2023/04/20 00:44:34;;;;;;;3.60;2.50;;;2.40;99.90;;;;;;5030139;28;20045;-83
2023/04/20 00:47:00;;;;;;;4.07;2.20;;;2.40;99.90;;;;;;5029222;28;20288;-84
2023/04/20 00:49:30;;;;;;;3.92;1.80;;;2.40;99.90;;;;;;5026280;28;20052;-83
2023/04/20 00:51:57;;;;;;;5.25;3.65;;;2.30;99.90;;;;;;5031716;28;20057;-85
2023/04/20 00:54:28;;;;;;;6.85;2.17;;;2.20;99.90;;;;;;5029669;28;20372;-83
2023/04/20 00:56:56;;;;;;;4.63;2.22;;;2.10;99.90;;;;;;5028256;28;20410;-84
2023/04/20 00:59:23;;;;;;;3.72;2.40;;;2.20;99.90;;;;;;5031067;28;20060;-83
2023/04/20 01:01:49;;;;;;;4.18;1.88;;;2.10;99.90;;;;;;5029466;28;20053;-84
2023/04/20 01:04:16;;;;;;;3.35;2.25;;;2.00;99.90;;;;;;5038336;28;20486;-83
2023/04/20 01:06:42;;;;;;;4.13;2.28;;;2.10;99.90;;;;;;5032187;28;20383;-84
2023/04/20 01:09:11;;;;;;;3.70;2.13;;;2.10;99.90;;;;;;5033146;28;20037;-83
2023/04/20 01:11:38;;;;;;;5.90;2.90;;;2.10;99.90;;;;;;5042580;28;20029;-84
2023/04/20 01:14:04;;;;;;;4.07;2.38;;;2.10;99.90;;;;;;5028750;28;20406;-83
2023/04/20 01:16:30;;;;;;;6.07;2.15;;;2.10;99.90;;;;;;5034132;28;20436;-84
2023/04/20 01:18:57;;;;;;;6.18;2.40;;;2.00;99.90;;;;;;5033271;28;20033;-85
2023/04/20 01:21:23;;;;;;;4.38;2.10;;;2.00;99.90;;;;;;5008863;28;20037;-83
2023/04/20 01:23:49;;;;;;;5.57;2.70;;;2.00;99.90;;;;;;5026849;28;20045;-84
2023/04/20 01:26:18;;;;;;;4.47;2.40;;;2.00;99.90;;;;;;5024838;28;20632;-84
2023/04/20 01:28:45;;;;;;;5.03;2.20;;;1.90;99.90;;;;;;5023403;28;20029;-84
2023/04/20 01:31:11;;;;;;;5.43;2.88;;;2.10;99.90;;;;;;5030673;28;20368;-84
2023/04/20 01:33:38;;;;;;;5.25;2.55;;;2.10;99.90;;;;;;5024460;28;20038;-84
2023/04/20 01:36:06;;;;;;;7.32;2.83;;;2.10;99.90;;;;;;5031286;28;20052;-84
2023/04/20 01:38:33;;;;;;;6.68;2.63;;;2.00;99.90;;;;;;5032396;28;20096;-84
2023/04/20 01:41:03;;;;;;;5.25;2.17;;;2.00;99.90;;;;;;5031875;28;20462;-84
2023/04/20 01:43:29;;;;;;;3.83;2.28;;;1.90;99.90;;;;;;5029470;28;20057;-83
2023/04/20 01:45:56;;;;;;;6.32;2.55;;;1.90;99.90;;;;;;5031522;28;20049;-85
2023/04/20 01:48:22;;;;;;;7.38;2.47;;;1.70;99.90;;;;;;5031418;28;20041;-84
2023/04/20 01:50:51;;;;;;;4.57;2.25;;;1.50;99.90;;;;;;5031246;28;20463;-83
2023/04/20 01:53:18;;;;;;;5.55;2.75;;;1.50;99.90;;;;;;5025837;28;20599;-83
2023/04/20 01:55:49;;;;;;;6.50;2.78;;;1.40;99.90;;;;;;5025655;28;20045;-83
2023/04/20 01:58:15;;;;;;;7.65;3.60;;;1.30;99.90;;;;;;5030794;28;20206;-83
2023/04/20 02:00:42;;;;;;;5.15;2.83;;;1.40;99.90;;;;;;5033253;28;20029;-84
2023/04/20 02:03:08;;;;;;;5.93;2.55;;;1.40;99.90;;;;;;5029981;28;20352;-83
2023/04/20 02:05:34;;;;;;;5.20;2.05;;;1.40;99.90;;;;;;5025224;28;20379;-83
2023/04/20 02:08:00;;;;;;;6.25;2.65;;;1.30;99.90;;;;;;5035639;28;20048;-84
2023/04/20 02:10:26;;;;;;;4.65;2.17;;;1.20;99.90;;;;;;5034718;28;20029;-82
2023/04/20 02:12:53;;;;;;;6.05;2.95;;;1.00;99.90;;;;;;5025171;28;20041;-82
2023/04/20 02:15:19;;;;;;;7.65;2.67;;;1.10;99.90;;;;;;5024378;28;20064;-83
2023/04/20 02:17:50;;;;;;;6.78;3.13;;;1.20;99.90;;;;;;5030128;28;20021;-83
2023/04/20 02:20:18;;;;;;;4.40;2.38;;;1.20;99.90;;;;;;5030382;28;20033;-83
2023/04/20 02:22:44;;;;;;;4.13;2.35;;;1.20;99.90;;;;;;5017699;28;20046;-83
2023/04/20 02:25:11;;;;;;;12.70;2.65;;;1.10;99.90;;;;;;5020485;28;20470;-83
2023/04/20 02:27:37;;;;;;;6.18;3.28;;;1.00;99.90;;;;;;5031472;28;20041;-82
2023/04/20 02:30:04;;;;;;;5.35;2.55;;;1.00;99.90;;;;;;5028180;28;20042;-83
2023/04/20 02:32:31;;;;;;;5.43;2.50;;;1.10;99.90;;;;;;5020544;28;20038;-83
2023/04/20 02:34:58;;;;;;;6.57;2.60;;;1.20;99.90;;;;;;5020692;28;20038;-83
2023/04/20 02:37:26;;;;;;;5.57;2.75;;;1.20;99.90;;;;;;5028910;28;20061;-84
2023/04/20 02:39:52;;;;;;;5.22;2.47;;;1.40;99.90;;;;;;5023105;28;20382;-83
2023/04/20 02:42:18;;;;;;;4.55;2.45;;;1.50;99.90;;;;;;5025112;28;20464;-83
2023/04/20 02:44:46;;;;;;;5.43;2.53;;;1.50;99.90;;;;;;5023296;28;20786;-84
2023/04/20 02:47:13;;;;;;;7.13;2.75;;;1.40;99.90;;;;;;5041856;28;20038;-83
2023/04/20 02:49:40;;;;;;;6.55;3.15;;;1.50;99.90;;;;;;5032797;28;20056;-83
2023/04/20 02:52:06;;;;;;;4.65;2.42;;;1.50;99.90;;;;;;5024446;28;20375;-84
2023/04/20 02:54:33;;;;;;;5.63;2.90;;;1.60;99.90;;;;;;5028772;28;20052;-83
2023/04/20 02:57:02;;;;;;;5.35;2.88;;;1.70;99.90;;;;;;5030176;28;20049;-84
2023/04/20 02:59:28;;;;;;;5.25;2.88;;;1.70;99.90;;;;;;5028973;28;20518;-84
2023/04/20 03:02:13;;;;;;;4.63;2.85;;;1.80;99.90;;;;;;5032330;28;20443;-84
2023/04/20 03:04:39;;;;;;;9.95;3.13;;;1.80;99.90;;;;;;5027490;28;20399;-83
2023/04/20 03:07:10;;;;;;;7.68;2.78;;;1.90;99.90;;;;;;5022221;28;20042;-84
2023/04/20 03:09:38;;;;;;;7.78;2.80;;;2.00;99.90;;;;;;5033167;28;20049;-83
2023/04/20 03:12:34;;;;;;;5.20;2.28;;;2.10;99.90;;;;;;5023134;28;20037;-84
2023/04/20 03:15:03;;;;;;;5.68;2.60;;;2.20;99.90;;;;;;5025806;28;20049;-85
2023/04/20 03:17:58;;;;;;;7.75;2.80;;;2.30;99.90;;;;;;5029149;28;20049;-83
2023/04/20 03:20:24;;;;;;;5.95;2.58;;;2.40;99.90;;;;;;5026520;28;20046;-84
2023/04/20 03:22:51;;;;;;;6.18;3.53;;;2.50;99.90;;;;;;5027190;28;20373;-83
2023/04/20 03:25:20;;;;;;;5.53;4.28;;;2.60;99.90;;;;;;5036274;28;20379;-84
2023/04/20 03:27:58;;;;;;;6.05;3.15;;;2.50;99.90;;;;;;5027496;28;20025;-83
2023/04/20 03:30:24;;;;;;;4.65;2.72;;;2.60;99.90;;;;;;5022044;28;20048;-84
2023/04/20 03:32:56;;;;;;;4.05;2.83;;;2.70;99.90;;;;;;5022237;28;20048;-84
2023/04/20 03:35:22;;;;;;;10.10;3.65;;;2.70;99.90;;;;;;5019704;28;20634;-84
2023/04/20 03:37:48;;;;;;;6.25;3.08;;;2.70;99.90;;;;;;5029863;28;20041;-83
2023/04/20 03:40:15;;;;;;;13.13;3.10;;;2.80;99.90;;;;;;5032477;28;20042;-84
2023/04/20 03:42:41;;;;;;;6.18;2.67;;;2.80;99.90;;;;;;5029922;28;20052;-84
2023/04/20 03:45:08;;;;;;;4.55;2.80;;;2.80;99.90;;;;;;5035902;28;20402;-84
2023/04/20 03:47:34;;;;;;;4.65;2.95;;;2.70;99.90;;;;;;5027634;28;20042;-83
2023/04/20 03:50:00;;;;;;;4.85;2.88;;;2.70;99.90;;;;;;5034218;28;20451;-84
2023/04/20 03:52:26;;;;;;;7.70;3.03;;;2.60;99.90;;;;;;5031003;28;20045;-84
2023/04/20 03:54:53;;;;;;;3.63;1.98;;;2.50;99.90;;;;;;5032268;28;20053;-84
2023/04/20 03:57:19;;;;;;;5.97;2.55;;;2.40;99.90;;;;;;5027177;28;20145;-84
2023/04/20 03:59:45;;;;;;;5.15;3.05;;;2.50;99.90;;;;;;5031640;28;20034;-85
2023/04/20 04:02:15;;;;;;;4.80;3.00;;;2.50;99.90;;;;;;5027303;28;20487;-84
2023/04/20 04:04:45;;;;;;;5.63;2.63;;;2.50;99.90;;;;;;5028289;28;20041;-84
2023/04/20 04:07:11;;;;;;;4.15;2.65;;;2.40;99.90;;;;;;5031405;28;20049;-84
2023/04/20 04:09:39;;;;;;;5.38;2.88;;;2.30;99.90;;;;;;5043290;28;20049;-83
2023/04/20 04:12:07;;;;;;;5.00;3.30;;;2.30;99.90;;;;;;5028016;28;20045;-84
2023/04/20 04:14:34;;;;;;;6.50;2.67;;;2.30;99.90;;;;;;5029741;28;20030;-84
2023/04/20 04:17:00;;;;;;;5.93;3.05;;;2.20;99.90;;;;;;5016863;28;20045;-84
2023/04/20 04:19:28;;;;;;;6.90;3.33;;;2.20;99.90;;;;;;5039426;28;20399;-84
2023/04/20 04:21:54;;;;;;;5.10;2.60;;;2.20;99.90;;;;;;5036457;28;20041;-84
2023/04/20 04:24:21;;;;;;;6.03;3.00;;;2.20;99.90;;;;;;5011418;28;20042;-84
2023/04/20 04:26:58;;;;;;;8.85;5.00;;;2.20;99.90;;;;;;5015772;28;20041;-85
2023/04/20 04:29:25;;;;;;;5.45;3.28;;;2.20;99.90;;;;;;5026551;28;20041;-84
2023/04/20 04:31:53;;;;;;;5.63;3.40;;;2.20;99.90;;;;;;5029252;28;20395;-84
2023/04/20 04:34:19;;;;;;;6.70;2.85;;;2.40;99.90;;;;;;5023624;28;20068;-85
2023/04/20 04:36:50;;;;;;;5.43;2.95;;;2.40;99.90;;;;;;5042266;28;20045;-87
2023/04/20 04:39:21;;;;;;;5.38;3.15;;;2.50;99.90;;;;;;5023630;28;20041;-84
2023/04/20 04:41:56;;;;;;;6.60;4.22;;;2.50;99.90;;;;;;5028824;28;20045;-84
2023/04/20 04:44:36;;;;;;;5.07;3.10;;;2.70;99.90;;;;;;5028116;28;20037;-84
2023/04/20 04:47:04;;;;;;;5.22;2.95;;;2.80;99.90;;;;;;5026204;28;20042;-85
2023/04/20 04:49:39;;;;;;;6.93;3.47;;;2.80;99.90;;;;;;5037477;28;20430;-84
2023/04/20 04:52:06;;;;;;;7.07;3.58;;;2.90;99.90;;;;;;5027203;28;20045;-85
2023/04/20 04:54:32;;;;;;;7.65;3.13;;;2.90;99.90;;;;;;5025369;28;20045;-82
2023/04/20 04:56:59;;;;;;;7.10;3.35;;;3.00;99.90;;;;;;5026947;28;20038;-84
2023/04/20 04:59:25;;;;;;;7.90;3.58;;;3.00;99.90;;;;;;5030774;28;20570;-85
2023/04/20 05:01:51;;;;;;;6.65;3.75;;;3.10;99.90;;;;;;5032423;28;20047;-85
2023/04/20 05:04:17;;;;;;;6.43;3.10;;;3.10;99.90;;;;;;5030576;28;20347;-84
2023/04/20 05:06:43;;;;;;;8.18;3.15;;;3.20;99.90;;;;;;5032027;28;20029;-85
2023/04/20 05:09:10;;;;;;;9.20;3.20;;;3.20;99.90;;;;;;5026033;28;20034;-84
2023/04/20 05:11:36;;;;;;;4.30;3.13;;;3.30;99.90;;;;;;5039450;28;20052;-85
2023/04/20 05:14:02;;;;;;;8.60;3.25;;;3.20;99.90;;;;;;5030813;28;20038;-83
2023/04/20 05:16:29;;;;;;;4.72;2.92;;;3.30;99.90;;;;;;5029934;28;20706;-84
2023/04/20 05:18:55;;;;;;;5.85;3.22;;;3.30;99.90;;;;;;5031224;28;20030;-85
2023/04/20 05:21:21;;;;;;;5.55;3.50;;;3.30;99.90;;;;;;5030992;28;20049;-85
2023/04/20 05:23:47;;;;;;;9.63;5.22;;;3.30;99.90;;;;;;5029259;28;20383;-85
2023/04/20 05:26:13;;;;;;;7.22;3.00;;;3.40;99.90;;;;;;5028453;28;20041;-83
2023/04/20 05:28:39;;;;;;;7.63;3.30;;;3.40;99.90;;;;;;5026980;28;20037;-86
2023/04/20 05:31:06;;;;;;;7.13;3.53;;;3.50;99.90;;;;;;5029976;28;20033;-84
2023/04/20 05:33:33;;;;;;;5.45;3.13;;;3.70;99.90;;;;;;5024990;28;20034;-86
2023/04/20 05:35:59;;;;;;;6.97;3.28;;;3.70;99.90;;;;;;5028501;28;20398;-85
2023/04/20 05:38:25;;;;;;;6.97;3.38;;;3.90;99.90;;;;;;5027953;28;20041;-84
2023/04/20 05:40:51;;;;;;;5.00;3.28;;;3.90;99.90;;;;;;5025721;28;20037;-84
2023/04/20 05:43:18;;;;;;;7.75;3.20;;;4.00;99.90;;;;;;5029438;28;20050;-84
2023/04/20 05:45:45;;;;;;;6.40;3.33;;;4.00;97.20;;;;;;5018243;28;20034;-84
2023/04/20 05:48:11;;;;;;;5.55;3.17;;;4.10;95.30;;;;;;5023535;28;20060;-85
2023/04/20 05:50:37;;;;;;;6.53;3.17;;;4.20;96.90;;;;;;5029137;28;20040;-84
2023/04/20 05:53:03;;;;;;;8.32;3.30;;;4.20;91.10;;;;;;5028417;28;20395;-84
2023/04/20 05:55:29;;;;;;;6.35;3.40;;;4.30;92.10;;;;;;5028255;28;20808;-84
2023/04/20 05:57:55;;;;;;;9.80;3.72;;;4.40;90.10;;;;;;5020993;28;20026;-86
2023/04/20 06:00:23;;;;;;;6.75;3.30;;;4.40;86.80;;;;;;5012025;28;20376;-86
2023/04/20 06:02:49;;;;;;;5.35;3.33;;;4.40;87.30;;;;;;5023977;28;20038;-81
2023/04/20 06:05:15;;;;;;;4.63;2.92;;;4.60;88.20;;;;;;5015041;28;20026;-83
2023/04/20 06:07:42;;;;;;;6.07;2.80;;;4.60;87.40;;;;;;5029194;28;20137;-86
2023/04/20 06:10:08;;;;;;;7.22;3.58;;;4.70;78.00;;;;;;5024753;28;20494;-83
2023/04/20 06:12:34;;;;;;;7.45;4.15;;;4.80;79.60;;;;;;5038578;28;20395;-82
2023/04/20 06:15:01;;;;;;;6.30;3.60;;;4.80;67.70;;;;;;5028943;28;20032;-86
2023/04/20 06:17:27;;;;;;;6.63;2.78;;;4.90;75.90;;;;;;5032026;28;20483;-85
2023/04/20 06:19:53;;;;;;;5.97;3.60;;;4.90;78.70;;;;;;5027192;28;20033;-83
2023/04/20 06:22:19;;;;;;;7.07;3.92;;;5.00;77.50;;;;;;5026831;28;20396;-86
2023/04/20 06:24:45;;;;;;;6.03;3.53;;;5.20;67.10;;;;;;5027526;28;20135;-76
2023/04/20 06:27:12;;;;;;;7.60;3.75;;;5.20;65.00;;;;;;5029217;28;20368;-81
2023/04/20 06:29:38;;;;;;;6.22;3.72;;;5.30;68.00;;;;;;5020270;28;20657;-82
2023/04/20 06:32:05;;;;;;;8.93;3.60;;;5.40;59.50;;;;;;5035092;28;20033;-84
2023/04/20 06:34:31;;;;;;;5.28;3.55;;;5.40;55.10;;;;;;5018379;28;20025;-84
2023/04/20 06:36:57;;;;;;;8.95;3.63;;;5.60;49.40;;;;;;5026308;28;20044;-81
2023/04/20 06:39:23;;;;;;;8.30;3.65;;;5.70;48.00;;;;;;5031901;28;20038;-86
2023/04/20 06:41:49;;;;;;;7.75;3.83;;;5.80;37.30;;;;;;5029864;28;20046;-81
2023/04/20 06:44:15;;;;;;;5.72;3.50;;;6.00;30.00;;;;;;5029824;28;20057;-84
2023/04/20 06:46:42;;;;;;;5.63;3.53;;;6.10;17.80;;;;;;5030272;28;20121;-83
2023/04/20 06:49:09;;;;;;;6.20;3.25;;;6.20;13.20;;;;;;5026331;28;20052;-87
2023/04/20 06:51:35;;;;;;;8.38;3.97;;;6.20;14.00;;;;;;5030742;28;20033;-82
2023/04/20 06:54:01;;;;;;;7.38;3.95;;;6.40;10.90;;;;;;5028606;28;20034;-83
2023/04/20 06:56:27;;;;;;;6.10;4.43;;;6.40;8.90;;;;;;5031597;28;20048;-83
2023/04/20 06:58:54;;;;;;;6.28;3.47;;;6.50;8.20;;;;;;5028454;28;20514;-85
2023/04/20 07:01:20;;;;;;;7.25;3.97;;;6.60;3.10;;;;;;5032512;28;20038;-85
2023/04/20 07:03:46;;;;;;;15.30;7.15;;;6.60;1.00;;;;;;5030852;28;20371;-85
2023/04/20 07:06:12;;;;;;;10.25;5.57;;;7.00;1.00;;;;;;5027115;28;20452;-85
2023/04/20 07:08:39;;;;;;;7.75;4.63;;;7.30;1.00;;;;;;5023829;28;20543;-83
2023/04/20 07:11:05;;;;;;;6.13;3.45;;;8.10;1.00;;;;;;5025793;28;20034;-85
2023/04/20 07:13:31;;;;;;;5.70;3.35;;;8.20;1.00;;;;;;5028609;28;20037;-84
2023/04/20 07:15:57;;;;;;;8.77;4.13;;;8.60;1.00;;;;;;5024378;28;20038;-85
2023/04/20 07:18:23;;;;;;;6.00;3.63;;;8.60;1.00;;;;;;5032811;28;20033;-85
2023/04/20 07:20:50;;;;;;;5.80;3.42;;;8.20;1.00;;;;;;5025429;28;20033;-85
2023/04/20 07:23:16;;;;;;;6.03;3.72;;;7.90;1.00;;;;;;5041210;28;20052;-86
2023/04/20 07:25:43;;;;;;;6.93;3.70;;;8.40;1.00;;;;;;5030790;28;20037;-85
2023/04/20 07:28:09;;;;;;;8.10;3.72;;;9.10;1.00;;;;;;5033344;28;20698;-84
2023/04/20 07:30:35;;;;;;;9.75;3.55;;;9.60;1.00;;;;;;5034564;28;20034;-86
2023/04/20 07:33:01;;;;;;;6.43;3.83;;;10.50;1.00;;;;;;5031896;28;20046;-87
2023/04/20 07:35:28;;;;;;;7.07;3.40;;;10.40;1.00;;;;;;5032192;28;20060;-84
2023/04/20 07:37:54;;;;;;;5.25;3.55;;;10.90;1.00;;;;;;5034062;28;20034;-85
2023/04/20 07:40:20;;;;;;;6.30;3.38;;;10.50;1.00;;;;;;5033964;28;20390;-86
2023/04/20 07:42:46;;;;;;;7.72;3.35;;;10.60;1.00;;;;;;5032978;28;20049;-85
2023/04/20 07:45:12;;;;;;;6.22;3.58;;;10.40;1.00;;;;;;5031606;28;20026;-84
2023/04/20 07:47:39;;;;;;;8.30;3.58;;;10.30;1.00;;;;;;5039615;28;20029;-84
2023/04/20 07:50:06;;;;;;;7.80;3.78;;;10.80;1.00;;;;;;5033660;28;20503;-88
2023/04/20 07:52:33;;;;;;;11.07;3.95;;;11.20;1.00;;;;;;5037938;28;20034;-84
2023/04/20 07:54:59;;;;;;;4.72;3.42;;;10.40;1.00;;;;;;5025549;28;20054;-86
2023/04/20 07:57:27;;;;;;;5.90;3.55;;;10.00;1.00;;;;;;5025956;28;20064;-85
2023/04/20 07:59:53;;;;;;;6.45;3.78;;;9.90;1.00;;;;;;5034169;28;20040;-83
2023/04/20 08:02:19;;;;;;;8.02;3.22;;;10.20;1.00;;;;;;5029244;28;20033;-85
2023/04/20 08:04:45;;;;;;;5.60;3.22;;;11.10;1.00;;;;;;5032271;28;20029;-85
2023/04/20 08:07:12;;;;;;;6.20;3.50;;;10.60;1.00;;;;;;5032531;28;20398;-86
2023/04/20 08:09:39;;;;;;;7.53;3.55;;;11.50;1.00;;;;;;5027340;28;20041;-84
2023/04/20 08:12:05;;;;;;;8.45;3.72;;;11.70;1.00;;;;;;5031828;28;20029;-85
2023/04/20 08:14:32;;;;;;;7.55;3.92;;;11.10;1.00;;;;;;5025472;28;20264;-85
2023/04/20 08:16:58;;;;;;;5.63;3.67;;;10.80;1.00;;;;;;5030151;28;20029;-86
2023/04/20 08:19:25;;;;;;;5.43;3.15;;;10.80;1.00;;;;;;5033389;28;20038;-85
2023/04/20 08:21:53;;;;;;;5.13;3.35;;;11.20;1.00;;;;;;5030214;28;20050;-85
2023/04/20 08:24:19;;;;;;;6.50;2.78;;;12.00;1.00;;;;;;5029724;28;20037;-84
2023/04/20 08:26:45;;;;;;;5.30;3.58;;;11.30;1.00;;;;;;5024419;28;20049;-86
2023/04/20 08:29:11;;;;;;;4.32;3.53;;;11.60;1.00;;;;;;5030378;28;20041;-86
2023/04/20 08:31:38;;;;;;;7.75;3.60;;;11.40;1.00;;;;;;5029731;28;20041;-84
2023/04/20 08:34:04;;;;;;;6.53;4.13;;;11.50;1.00;;;;;;5031963;28;20044;-84
2023/04/20 08:36:30;;;;;;;4.90;3.63;;;11.00;1.00;;;;;;5027529;28;20045;-83
2023/04/20 08:39:08;;;;;;;6.90;3.95;;;12.40;1.00;;;;;;5020890;28;20408;-84
2023/04/20 08:41:35;;;;;;;4.07;3.03;;;12.30;1.00;;;;;;5032306;28;20033;-83
2023/04/20 08:44:01;;;;;;;6.13;3.17;;;12.60;1.00;;;;;;5031962;28;20564;-82
2023/04/20 08:46:28;;;;;;;6.00;3.88;;;13.10;1.00;;;;;;5028172;28;20053;-85
2023/04/20 08:48:55;;;;;;;7.18;3.38;;;13.40;1.00;;;;;;5032813;28;20475;-82
2023/04/20 08:51:22;;;;;;;6.80;3.28;;;12.10;1.00;;;;;;5021513;28;20449;-83
2023/04/20 08:53:48;;;;;;;6.15;3.53;;;12.10;1.00;;;;;;5030388;28;20384;-85
2023/04/20 08:56:14;;;;;;;6.30;3.60;;;13.00;1.00;;;;;;5023541;28;20033;-85
2023/04/20 08:58:41;;;;;;;4.72;3.08;;;11.00;1.00;;;;;;5029889;28;20037;-83
2023/04/20 09:01:11;;;;;;;7.40;3.42;;;10.20;1.00;;;;;;5028312;28;20055;-83
2023/04/20 09:03:39;;;;;;;4.70;3.05;;;10.20;1.00;;;;;;5030028;28;20034;-82
2023/04/20 09:06:13;;;;;;;7.65;4.32;;;10.00;1.00;;;;;;5024071;28;20044;-83
2023/04/20 09:08:41;;;;;;;7.47;4.65;;;9.90;1.00;;;;;;5030023;28;20447;-83
2023/04/20 09:11:26;;;;;;;5.70;4.05;;;9.70;1.00;;;;;;5030912;28;20022;-81
2023/04/20 09:14:11;;;;;;;4.68;3.88;;;9.70;1.00;;;;;;5030276;28;20037;-80
2023/04/20 09:16:51;;;;;;;7.03;3.97;;;9.60;1.00;;;;;;5032089;28;20034;-82
2023/04/20 09:19:24;;;;;;;5.28;3.65;;;9.70;1.00;;;;;;5024587;28;20501;-82
2023/04/20 09:21:54;;;;;;;8.13;4.25;;;9.60;1.00;;;;;;5038365;28;20048;-82
2023/04/20 09:24:22;;;;;;;4.72;3.33;;;9.70;1.00;;;;;;5025757;28;20044;-82
2023/04/20 09:26:48;;;;;;;7.57;3.75;;;9.80;1.00;;;;;;5028866;28;20060;-84
2023/04/20 09:29:20;;;;;;;7.30;4.35;;;9.90;1.00;;;;;;5031646;28;20026;-82
2023/04/20 09:31:47;;;;;;;5.60;4.20;;;9.80;1.00;;;;;;5026928;28;20053;-81
2023/04/20 09:34:14;;;;;;;6.40;4.15;;;9.70;1.00;;;;;;5023776;28;20030;-80
2023/04/20 09:36:45;;;;;;;6.68;4.03;;;9.60;1.00;;;;;;5027250;28;20048;-81
2023/04/20 09:39:16;;;;;;;7.95;4.10;;;9.90;1.00;;;;;;5028713;28;20045;-80
2023/04/20 09:41:43;;;;;;;6.20;4.10;;;10.00;1.00;;;;;;5028594;28;20060;-80
2023/04/20 09:44:11;;;;;;;8.95;3.88;;;10.00;1.00;;;;;;5026606;28;20036;-81
2023/04/20 09:46:39;;;;;;;8.05;4.22;;;9.90;1.00;;;;;;5031560;28;20033;-81
2023/04/20 09:49:06;;;;;;;7.20;4.25;;;9.80;1.00;;;;;;5032092;28;20048;-80
2023/04/20 09:51:35;;;;;;;6.50;4.25;;;9.80;1.00;;;;;;5030879;28;20052;-79
2023/04/20 09:54:02;;;;;;;8.30;4.03;;;9.70;1.00;;;;;;5030058;28;20112;-80
2023/04/20 09:56:30;;;;;;;5.60;4.18;;;9.80;1.00;;;;;;5031228;28;20041;-79
2023/04/20 09:58:58;;;;;;;8.80;4.30;;;9.80;1.00;;;;;;5027406;28;20048;-80
2023/04/20 10:01:24;;;;;;;8.27;4.38;;;10.00;1.00;;;;;;5030368;28;20033;-81
2023/04/20 10:03:56;;;;;;;7.13;4.20;;;10.50;1.00;;;;;;5029796;28;20467;-80
2023/04/20 10:06:30;;;;;;;6.07;3.40;;;10.90;1.00;;;;;;5024999;28;20049;-81
2023/04/20 10:09:00;;;;;;;6.97;4.22;;;10.90;1.00;;;;;;5030860;28;20056;-81
2023/04/20 10:11:37;;;;;;;6.85;4.20;;;10.50;1.00;;;;;;5026616;28;20036;-81
2023/04/20 10:14:17;;;;;;;7.75;4.47;;;10.70;1.00;;;;;;5020751;28;20041;-79
2023/04/20 10:16:44;;;;;;;7.57;3.75;;;10.80;1.00;;;;;;5036857;28;20065;-82
2023/04/20 10:19:11;;;;;;;8.90;5.07;;;10.60;1.00;;;;;;5032144;28;20037;-80
2023/04/20 10:21:49;;;;;;;9.93;4.32;;;10.60;1.00;;;;;;5022347;28;20038;-78
2023/04/20 10:24:28;;;;;;;5.38;3.83;;;10.50;1.00;;;;;;5020938;28;20697;-79
2023/04/20 10:26:54;;;;;;;9.50;4.30;;;10.60;1.00;;;;;;5025681;28;20490;-81
2023/04/20 10:29:25;;;;;;;6.25;4.00;;;10.50;1.00;;;;;;5024897;28;20064;-81
2023/04/20 10:31:52;;;;;;;5.93;4.43;;;10.70;1.00;;;;;;5019147;28;20048;-79
2023/04/20 10:34:32;;;;;;;5.93;4.05;;;10.80;1.00;;;;;;5031776;28;20038;-81
2023/04/20 10:37:08;;;;;;;6.72;4.38;;;10.60;1.00;;;;;;5026842;28;20036;-81
2023/04/20 10:39:36;;;;;;;11.00;4.80;;;10.90;1.00;;;;;;5026787;28;20060;-81
2023/04/20 10:42:03;;;;;;;8.55;4.70;;;10.80;1.00;;;;;;5028364;28;20062;-80
2023/04/20 10:44:30;;;;;;;5.60;4.43;;;10.60;1.00;;;;;;5021414;28;20482;-80
2023/04/20 10:46:56;;;;;;;10.90;4.45;;;10.80;1.00;;;;;;5017992;28;20030;-80
2023/04/20 10:49:27;;;;;;;7.15;4.22;;;11.10;1.00;;;;;;5023582;28;20041;-80
2023/04/20 10:51:54;;;;;;;6.47;4.65;;;11.20;1.00;;;;;;5036890;28;20034;-80
2023/04/20 10:54:21;;;;;;;5.03;3.78;;;11.40;1.00;;;;;;5027544;28;20025;-80
2023/04/20 10:56:50;;;;;;;10.63;4.25;;;11.60;1.00;;;;;;5045349;28;20046;-80
2023/04/20 10:59:19;;;;;;;6.50;3.72;;;11.60;1.00;;;;;;5034681;28;20036;-79
2023/04/20 11:01:46;;;;;;;7.55;4.30;;;11.50;1.00;;;;;;5035117;28;20042;-80
2023/04/20 11:04:13;;;;;;;4.63;3.35;;;11.60;1.00;;;;;;5034857;28;20044;-80
2023/04/20 11:06:40;;;;;;;8.43;5.10;;;11.80;1.00;;;;;;5043586;28;20443;-80
2023/04/20 11:09:17;;;;;;;4.95;3.30;;;11.60;1.00;;;;;;5011008;28;20041;-79
2023/04/20 11:11:44;;;;;;;7.57;3.20;;;11.60;1.00;;;;;;5035552;28;20053;-79
2023/04/20 11:14:12;;;;;;;5.13;3.53;;;11.50;1.00;;;;;;5034822;28;20041;-79
2023/04/20 11:16:38;;;;;;;7.65;4.20;;;11.90;1.00;;;;;;5033849;28;20029;-78
2023/04/20 11:19:05;;;;;;;6.10;2.97;;;12.40;1.00;;;;;;5032507;28;20042;-79
2023/04/20 11:21:39;;;;;;;6.70;3.97;;;12.80;1.00;;;;;;5034045;28;20030;-77
2023/04/20 11:24:18;;;;;;;5.72;3.08;;;12.30;1.00;;;;;;5033562;28;20033;-81
2023/04/20 11:26:48;;;;;;;6.55;3.30;;;12.40;1.00;;;;;;5034415;28;20060;-80
2023/04/20 11:29:37;;;;;;;3.90;2.83;;;12.00;1.00;;;;;;5027645;28;20040;-80
2023/04/20 11:32:06;;;;;;;6.05;3.20;;;11.90;1.00;;;;;;5032711;28;20351;-79
2023/04/20 11:34:33;;;;;;;4.45;3.05;;;11.70;1.00;;;;;;5031093;28;20041;-79
2023/04/20 11:37:12;;;;;;;5.63;2.97;;;11.40;1.00;;;;;;5033038;28;20029;-81
2023/04/20 11:39:39;;;;;;;5.45;3.00;;;11.30;1.00;;;;;;5032058;28;20380;-80
2023/04/20 11:42:05;;;;;;;5.30;3.30;;;11.20;1.00;;;;;;5034418;28;20064;-78
2023/04/20 11:44:31;;;;;;;6.10;2.72;;;11.20;1.00;;;;;;5033933;28;20030;-80
2023/04/20 11:46:58;;;;;;;4.72;3.20;;;11.20;1.00;;;;;;5030492;28;20038;-80
2023/04/20 11:49:26;;;;;;;6.07;2.97;;;11.20;1.00;;;;;;5029152;28;20026;-81
2023/04/20 11:51:53;;;;;;;5.68;3.55;;;11.30;1.00;;;;;;5032623;28;20387;-80
2023/04/20 11:54:20;;;;;;;4.90;3.25;;;11.40;1.00;;;;;;5034034;28;20056;-79
2023/04/20 11:56:47;;;;;;;5.38;2.95;;;11.40;1.00;;;;;;5031726;28;20041;-79
2023/04/20 11:59:15;;;;;;;4.00;3.15;;;11.50;1.00;;;;;;5028514;28;20375;-80
2023/04/20 12:01:41;;;;;;;9.38;7.15;;;11.60;1.00;;;;;;5030282;28;20029;-80
2023/04/20 12:04:08;;;;;;;5.00;3.08;;;11.70;1.00;;;;;;5034961;28;20029;-80
2023/04/20 12:06:34;;;;;;;6.20;2.88;;;12.00;1.00;;;;;;5034222;28;20056;-80
2023/04/20 12:09:00;;;;;;;3.38;2.20;;;12.30;1.00;;;;;;5031767;28;20033;-79
2023/04/20 12:11:26;;;;;;;4.93;1.90;;;12.90;1.00;;;;;;5034002;28;20037;-79
2023/04/20 12:13:53;;;;;;;5.68;1.92;;;13.10;1.00;;;;;;5032812;28;20056;-80
2023/04/20 12:16:20;;;;;;;2.95;2.28;;;13.20;1.00;;;;;;5033818;28;20026;-79
2023/04/20 12:18:46;;;;;;;4.30;2.25;;;13.20;1.00;;;;;;5031891;28;20097;-79
2023/04/20 12:21:12;;;;;;;3.33;2.53;;;13.20;1.00;;;;;;5033739;28;20041;-79
2023/04/20 12:23:38;;;;;;;3.22;2.33;;;12.80;1.00;;;;;;5033744;28;20360;-79
2023/04/20 12:26:05;;;;;;;4.57;2.88;;;12.80;1.00;;;;;;5033186;28;20029;-78
2023/04/20 12:28:32;;;;;;;7.00;3.10;;;12.70;1.00;;;;;;5026424;28;20042;-80
2023/04/20 12:30:58;;;;;;;4.93;2.38;;;12.40;1.00;;;;;;5030961;28;20406;-80
2023/04/20 12:33:24;;;;;;;6.97;3.33;;;12.00;1.00;;;;;;5032455;28;20375;-80
2023/04/20 12:35:51;;;;;;;4.05;2.83;;;11.80;1.00;;;;;;5029511;28;20065;-75
2023/04/20 12:38:17;;;;;;;5.05;2.97;;;11.40;1.00;;;;;;5011627;28;20058;-76
2023/04/20 12:40:43;;;;;;;4.20;2.53;;;11.10;1.00;;;;;;5028279;28;20402;-77
2023/04/20 12:43:09;;;;;;;3.47;2.40;;;11.00;1.00;;;;;;5030954;28;20049;-78
2023/04/20 12:45:35;;;;;;;5.22;2.90;;;11.10;1.00;;;;;;5032505;28;20037;-78
2023/04/20 12:48:02;;;;;;;5.50;2.70;;;11.20;1.00;;;;;;5029880;28;20041;-77
2023/04/20 12:50:28;;;;;;;11.10;6.43;;;11.20;1.00;;;;;;5027986;28;20064;-77
2023/04/20 12:53:01;;;;;;;5.28;3.58;;;11.20;1.00;;;;;;5033058;28;20041;-77
2023/04/20 12:55:27;;;;;;;6.05;3.25;;;11.20;1.00;;;;;;5031795;28;20038;-77
2023/04/20 12:57:53;;;;;;;5.22;3.53;;;11.20;1.00;;;;;;5027972;28;20033;-77
2023/04/20 13:00:19;;;;;;;8.10;3.75;;;11.40;1.00;;;;;;5032497;28;20387;-77